Flight Track Log - Related Links

Times and Time Zones

All times are in EDT time to prevent confusion due to time zone crossing. See the N109WK flight status page for this flight to view local times or setup timezone preferences in your user account.

Time Position Orientation Groundspeed Altitude Reporting Facility
EDT Latitude Longitude Course Direction KTS MPH feet Rate Location/Type
Sat 06:04:19 PM 38.6667 -90.7167 270° West 87 100 1,700  Level Gateway (St. Louis) TRACON
Sat 06:05:05 PM 38.6811 -90.7328 319° Northwest 91 105 2,100 611 Climbing Kansas City Center
Sat 06:06:07 PM 38.7039 -90.7336 358° North 91 105 2,800 537 Climbing Kansas City Center
Sat 06:07:08 PM 38.7278 -90.7292 North 87 100 3,200 341 Climbing Kansas City Center
Sat 06:08:10 PM 38.7522 -90.7250 North 87 100 3,500 339 Climbing Kansas City Center
Sat 06:09:12 PM 38.7786 -90.7222 North 91 105 3,900 435 Climbing Kansas City Center
Sat 06:10:14 PM 38.8050 -90.7142 13° North 94 108 4,400 387 Climbing Kansas City Center
Sat 06:11:16 PM 38.8314 -90.7086 North 95 109 4,700 339 Climbing Kansas City Center
Sat 06:12:18 PM 38.8631 -90.7019 North 96 110 5,100 341 Climbing Kansas City Center
Sat 06:13:19 PM 38.8886 -90.6969 North 95 109 5,400 293 Climbing Kansas City Center
Sat 06:14:21 PM 38.9158 -90.6922 North 96 110 5,700 290 Climbing Kansas City Center
Sat 06:15:23 PM 38.9419 -90.6881 North 95 109 6,000 242 Climbing Kansas City Center
Sat 06:16:25 PM 38.9667 -90.6828 North 93 107 6,200 97 Climbing Kansas City Center
Sat 06:17:27 PM 38.9942 -90.6794 North 94 108 6,200  Level Kansas City Center
Sat 06:18:29 PM 39.0261 -90.6733 North 106 122 6,200  Level Kansas City Center
Sat 06:19:30 PM 39.0650 -90.6661 North 114 131 6,200  Level Kansas City Center
Sat 06:20:32 PM 39.0967 -90.6600 North 116 133 6,200  Level Kansas City Center
Sat 06:21:34 PM 39.1272 -90.6539 North 114 131 6,200  Level Kansas City Center
Sat 06:22:36 PM 39.1594 -90.6481 North 115 132 6,200  Level Kansas City Center
Sat 06:23:38 PM 39.1919 -90.6419 North 116 133 6,200  Level Kansas City Center
Sat 06:24:39 PM 39.2233 -90.6361 North 115 132 6,200  Level Kansas City Center
Sat 06:25:41 PM 39.2561 -90.6294 North 117 135 6,200  Level Kansas City Center
Sat 06:26:43 PM 39.2956 -90.6217 North 119 137 6,200  Level Kansas City Center
Sat 06:27:45 PM 39.3278 -90.6164 North 118 136 6,200  Level Kansas City Center
Sat 06:28:46 PM 39.3603 -90.6097 North 117 135 6,200  Level Kansas City Center
Sat 06:29:48 PM 39.3939 -90.6042 North 120 138 6,200  Level Kansas City Center
Sat 06:30:50 PM 39.4269 -90.5994 North 120 138 6,200  Level Kansas City Center
Sat 06:31:52 PM 39.4606 -90.5914 10° North 122 140 6,200  Level Kansas City Center
Sat 06:32:53 PM 39.4942 -90.5847 North 122 140 6,200  Level Kansas City Center
Sat 06:33:55 PM 39.5350 -90.5764 North 124 143 6,200  Level Kansas City Center
Sat 06:34:57 PM 39.5692 -90.5706 North 124 143 6,200  Level Kansas City Center
Sat 06:35:58 PM 39.6014 -90.5656 North 120 138 6,200  Level Kansas City Center
Sat 06:37:00 PM 39.6339 -90.5589 North 118 136 6,200  Level Kansas City Center
Sat 06:38:02 PM 39.6661 -90.5517 10° North 118 136 6,200  Level Kansas City Center
Sat 06:39:04 PM 39.6986 -90.5453 North 118 136 6,200  Level Kansas City Center
Sat 06:40:05 PM 39.7325 -90.5394 North 122 140 6,200  Level Kansas City Center
Sat 06:41:07 PM 39.7669 -90.5342 North 123 142 6,200  Level Kansas City Center
Sat 06:42:08 PM 39.8058 -90.5253 10° North 119 137 6,200  Level Kansas City Center
Sat 06:43:10 PM 39.8400 -90.5197 North 122 140 6,200  Level Kansas City Center
Sat 06:44:12 PM 39.8719 -90.5106 12° North 119 137 6,200  Level Kansas City Center
Sat 06:45:13 PM 39.9053 -90.5069 North 120 138 6,200  Level Kansas City Center
Sat 06:46:15 PM 39.9378 -90.4981 12° North 120 138 6,200  Level Kansas City Center
Sat 06:47:16 PM 39.9711 -90.4939 North 120 138 6,200  Level Kansas City Center
Sat 06:48:18 PM 40.0028 -90.4861 11° North 117 135 6,200  Level Kansas City Center
Sat 06:49:20 PM 40.0342 -90.4806 North 115 132 6,200  Level Kansas City Center
Sat 06:50:21 PM 40.0742 -90.4739 North 120 138 6,200  Level Kansas City Center
Sat 06:51:23 PM 40.1061 -90.4661 11° North 118 136 6,200  Level Kansas City Center
Sat 06:52:25 PM 40.1397 -90.4625 North 120 138 6,200  Level Kansas City Center
Sat 06:53:26 PM 40.1714 -90.4550 10° North 117 135 6,200  Level Kansas City Center
Sat 06:54:28 PM 40.2050 -90.4472 10° North 120 138 6,200  Level Kansas City Center
Sat 06:55:29 PM 40.2358 -90.4406 North 116 133 6,200  Level Kansas City Center
Sat 06:56:31 PM 40.2697 -90.4353 North 119 137 6,200  Level Kansas City Center
Sat 06:57:33 PM 40.3025 -90.4292 North 119 137 6,200  Level Kansas City Center
Sat 06:58:34 PM 40.3419 -90.4219 North 120 138 6,200  Level Kansas City Center
Sat 06:59:36 PM 40.3733 -90.4158 North 116 133 6,200  Level Kansas City Center
Sat 07:00:38 PM 40.4056 -90.4089 North 116 133 6,200  Level Kansas City Center
Sat 07:01:40 PM 40.4358 -90.4031 North 114 131 6,200  Level Kansas City Center
Sat 07:02:41 PM 40.4658 -90.3972 North 110 127 6,200  Level Kansas City Center
Sat 07:03:51 PM 40.5036 -90.3900 North 112 129 6,200  Level Chicago Center
Sat 07:04:52 PM 40.5350 -90.3833 North 113 130 6,200  Level Chicago Center
Sat 07:05:54 PM 40.5681 -90.3772 North 117 135 6,200  Level Chicago Center
Sat 07:06:56 PM 40.6006 -90.3706 North 118 136 6,200  Level Chicago Center
Sat 07:07:58 PM 40.6328 -90.3650 North 117 135 6,200  Level Chicago Center
Sat 07:09:00 PM 40.6631 -90.3583 North 114 131 6,200  Level Chicago Center
Sat 07:10:02 PM 40.7006 -90.3514 North 113 130 6,200  Level Chicago Center
Sat 07:11:03 PM 40.7317 -90.3447 North 112 129 6,200  Level Chicago Center
Sat 07:12:05 PM 40.7639 -90.3383 North 114 131 6,200 -48 Level Chicago Center
Sat 07:13:07 PM 40.7967 -90.3325 North 116 133 6,100 -48 Descending Chicago Center
Sat 07:14:09 PM 40.8303 -90.3258 North 119 137 6,100  Level Chicago Center
Sat 07:15:11 PM 40.8561 -90.3203 North 118 136 6,100  Level Chicago Center
Sat 07:16:13 PM 40.8942 -90.3128 North 116 133 6,100  Level Chicago Center
Sat 07:17:15 PM 40.9336 -90.3050 North 117 135 6,100  Level Chicago Center
Sat 07:18:16 PM 40.9664 -90.2983 North 118 136 6,100  Level Chicago Center
Sat 07:19:18 PM 40.9994 -90.2925 North 119 137 6,100  Level Chicago Center
Sat 07:21:10 PM 41.0578 -90.2808 North 133 153 6,100  Level Chicago Center
Sat 07:22:11 PM 41.0919 -90.2728 10° North 126 145 6,100  Level Chicago Center
Sat 07:23:13 PM 41.1228 -90.2672 North 120 138 6,100  Level Chicago Center
Sat 07:24:15 PM 41.1567 -90.2608 North 120 138 6,100  Level Chicago Center
Sat 07:25:17 PM 41.1956 -90.2514 10° North 119 137 6,100  Level Chicago Center
Sat 07:26:19 PM 41.2267 -90.2431 11° North 116 133 6,100  Level Chicago Center
Sat 07:27:20 PM 41.2592 -90.2292 18° North 119 137 6,100  Level Chicago Center
Sat 07:28:22 PM 41.2919 -90.2278 North 119 137 6,100  Level Chicago Center
Sat 07:29:24 PM 41.3219 -90.2167 16° North 117 135 6,100  Level Chicago Center
Sat 07:30:25 PM 41.3522 -90.1869 36° Northeast 120 138 6,100  Level Chicago Center
Sat 07:31:27 PM 41.3767 -90.1675 31° Northeast 116 133 6,100  Level Chicago Center
Sat 07:32:29 PM 41.4064 -90.1394 35° Northeast 111 128 6,100  Level Chicago Center
Sat 07:33:31 PM 41.4344 -90.1136 35° Northeast 117 135 6,100  Level Chicago Center
Sat 07:34:32 PM 41.4622 -90.0864 36° Northeast 122 140 6,100  Level Chicago Center
Sat 07:35:34 PM 41.4878 -90.0622 35° Northeast 117 135 6,100  Level Chicago Center
Sat 07:36:36 PM 41.5114 -90.0378 38° Northeast 111 128 6,100  Level Chicago Center
Sat 07:37:37 PM 41.5361 -90.0089 41° Northeast 116 133 6,100  Level Chicago Center
Sat 07:38:39 PM 41.5592 -89.9786 44° Northeast 117 135 6,100  Level Chicago Center
Sat 07:39:41 PM 41.5822 -89.9503 43° Northeast 112 129 6,100  Level Chicago Center
Sat 07:40:42 PM 41.6094 -89.9156 44° Northeast 112 129 6,100  Level Chicago Center
Sat 07:41:44 PM 41.6331 -89.8844 45° Northeast 114 131 6,100  Level Chicago Center
Sat 07:42:46 PM 41.6581 -89.8531 43° Northeast 123 142 6,100  Level Chicago Center
Sat 07:43:47 PM 41.6833 -89.8247 40° Northeast 121 139 6,100  Level Chicago Center
Sat 07:44:49 PM 41.7081 -89.7961 41° Northeast 119 137 6,100  Level Chicago Center
Sat 07:46:00 PM 41.7475 -89.7949 North  Level FlightAware Approximate
Sat 07:46:53 PM 41.7575 -89.7400 North 118 136 6,100  Level Chicago Center
Sat 07:47:54 PM 41.7819 -89.7067 45° Northeast 111 128 6,100  Level Chicago Center
Sat 07:48:56 PM 41.8064 -89.6786 41° Northeast 111 128 6,100  Level Chicago Center
Sat 07:49:58 PM 41.8292 -89.6522 41° Northeast 113 130 6,100  Level Chicago Center
Sat 07:51:00 PM 41.8539 -89.6242 40° Northeast 118 136 6,100  Level Chicago Center
Sat 07:52:01 PM 41.8822 -89.5928 40° Northeast 114 131 6,100  Level Chicago Center
Sat 07:53:03 PM 41.9156 -89.6150 334° Northwest 129 148 6,100  Level Chicago Center
Sat 07:54:05 PM 41.9469 -89.6267 345° North 119 137 6,100  Level Chicago Center
Sat 07:55:07 PM 41.9786 -89.6444 337° Northwest 122 140 6,100  Level Chicago Center
Sat 07:56:08 PM 42.0108 -89.6589 342° North 122 140 6,100  Level Chicago Center
Sat 07:57:10 PM 42.0419 -89.6736 341° North 118 136 6,100  Level Chicago Center
Sat 07:58:12 PM 42.0797 -89.6928 339° North 123 142 6,100  Level Chicago Center
Sat 07:59:14 PM 42.1142 -89.7114 338° Northwest 132 152 6,100  Level Chicago Center
Sat 08:00:15 PM 42.1461 -89.7256 342° North 123 142 6,100  Level Chicago Center
Sat 08:01:17 PM 42.1806 -89.7431 339° North 129 148 6,100  Level Chicago Center
Sat 08:02:19 PM 42.2122 -89.7575 341° North 122 140 6,100  Level Chicago Center
Sat 08:03:20 PM 42.2458 -89.7747 339° North 125 144 6,100  Level Chicago Center
Sat 08:04:22 PM 42.2803 -89.7903 342° North 130 150 6,100  Level Chicago Center
Sat 08:05:24 PM 42.3197 -89.8106 339° North 130 150 6,100  Level Chicago Center
Sat 08:06:25 PM 42.3542 -89.8258 342° North 130 150 6,100  Level Chicago Center
Sat 08:07:27 PM 42.3883 -89.8431 340° North 133 153 6,100  Level Chicago Center
Sat 08:08:29 PM 42.4214 -89.8600 339° North 131 151 6,100  Level Chicago Center
Sat 08:09:30 PM 42.4567 -89.8767 341° North 134 154 6,100  Level Chicago Center
Sat 08:10:32 PM 42.4900 -89.8922 341° North 130 150 6,100  Level Chicago Center
Sat 08:11:34 PM 42.5253 -89.9108 339° North 134 154 6,100 49 Level Chicago Center
Sat 08:12:35 PM 42.5675 -89.9300 342° North 135 155 6,200 49 Climbing Chicago Center
Sat 08:13:37 PM 42.6011 -89.9469 340° North 131 151 6,200  Level Chicago Center
Sat 08:14:38 PM 42.6364 -89.9633 341° North 133 153 6,200  Level Chicago Center
Sat 08:15:40 PM 42.6700 -89.9808 339° North 131 151 6,200  Level Chicago Center
Sat 08:16:54 PM 42.7036 -89.9975 340° North 132 152 6,200  Level Chicago Center
Sat 08:17:56 PM 42.7447 -90.0175 340° North 132 152 6,200  Level Chicago Center
Sat 08:18:57 PM 42.7847 -90.0378 340° North 130 150 6,200  Level Chicago Center
Sat 08:19:59 PM 42.8169 -90.0528 341° North 127 146 6,200  Level Chicago Center
Sat 08:21:01 PM 42.8503 -90.0689 340° North 126 145 6,200 -49 Level Chicago Center
Sat 08:22:02 PM 42.8839 -90.0861 339° North 129 148 6,100  Descending Chicago Center
Sat 08:23:04 PM 42.9175 -90.1025 340° North 130 150 6,200 49 Climbing Chicago Center
Sat 08:24:05 PM 42.9567 -90.1228 339° North 128 147 6,200  Level Chicago Center
Sat 08:25:07 PM 42.9908 -90.1392 341° North 130 150 6,200  Level Chicago Center
Sat 08:26:09 PM 43.0239 -90.1564 339° North 129 148 6,200  Level Chicago Center
Sat 08:27:10 PM 43.0578 -90.1719 341° North 129 148 6,200  Level Chicago Center
Sat 08:28:12 PM 43.0906 -90.1892 339° North 128 147 6,200  Level Chicago Center
Sat 08:29:13 PM 43.1233 -90.2056 340° North 127 146 6,200  Level Chicago Center
Sat 08:30:15 PM 43.1603 -90.2242 340° North 128 147 6,200  Level Chicago Center
Sat 08:31:16 PM 43.1953 -90.2403 341° North 130 150 6,200  Level Chicago Center
Sat 08:32:18 PM 43.2294 -90.2578 340° North 130 150 6,200  Level Chicago Center
Sat 08:33:20 PM 43.2683 -90.2783 339° North 129 148 6,200 49 Level Chicago Center
Sat 08:34:21 PM 43.2989 -90.2925 341° North 130 150 6,300 49 Climbing Chicago Center
Sat 08:35:23 PM 43.3317 -90.3094 339° North 130 150 6,300  Level Chicago Center
Sat 08:36:24 PM 43.3731 -90.3306 340° North 132 152 6,300  Level Chicago Center
Sat 08:37:26 PM 43.4064 -90.3472 340° North 130 150 6,300 -48 Level Chicago Center
Sat 08:38:28 PM 43.4386 -90.3650 338° Northwest 130 150 6,200 -48 Descending Chicago Center
Sat 08:39:30 PM 43.4719 -90.3828 339° North 128 147 6,200  Level Chicago Center
Sat 08:40:31 PM 43.5097 -90.3994 342° North 134 154 6,200  Level Chicago Center
Sat 08:41:33 PM 43.5422 -90.4156 340° North 128 147 6,200  Level Chicago Center
Sat 08:42:34 PM 43.5814 -90.4356 340° North 128 147 6,200  Level Chicago Center
Sat 08:43:36 PM 43.6139 -90.4525 339° North 126 145 6,200  Level Chicago Center
Sat 08:44:38 PM 43.6450 -90.4675 341° North 123 142 6,200  Level Chicago Center
Sat 08:45:39 PM 43.6772 -90.4847 339° North 123 142 6,200  Level Chicago Center
Sat 08:46:41 PM 43.7086 -90.5011 339° North 124 143 6,200  Level Chicago Center
Sat 08:47:43 PM 43.7472 -90.5208 340° North 124 143 6,200  Level Chicago Center
Sat 08:48:44 PM 43.7781 -90.5364 340° North 122 140 6,200  Level Chicago Center
Sat 08:49:46 PM 43.8114 -90.5528 340° North 125 144 6,200  Level Chicago Center
Sat 08:50:48 PM 43.8458 -90.5697 340° North 129 148 6,200  Level Chicago Center
Sat 08:51:49 PM 43.8781 -90.5883 337° Northwest 127 146 6,200  Level Chicago Center
Sat 08:52:51 PM 43.9111 -90.6042 341° North 127 146 6,200  Level Chicago Center
Sat 08:53:52 PM 43.9531 -90.6269 339° North 131 151 6,200  Level Chicago Center
Sat 08:54:54 PM 43.9875 -90.6481 336° Northwest 135 155 6,200  Level Chicago Center
Sat 08:55:55 PM 44.0214 -90.6658 339° North 134 154 6,200  Level Chicago Center
Sat 08:56:57 PM 44.0547 -90.6817 341° North 132 152 6,200  Level Chicago Center
Sat 08:57:59 PM 44.0853 -90.6933 345° North 124 143 6,200  Level Chicago Center
Sat 08:59:00 PM 44.1189 -90.7125 338° Northwest 127 146 6,200  Level Chicago Center
Sat 09:00:02 PM 44.1606 -90.7331 341° North 132 152 6,200  Level Chicago Center
Sat 09:01:03 PM 44.1953 -90.7497 341° North 132 152 6,200  Level Chicago Center
Sat 09:02:29 PM 44.2436 -90.7750 339° North 132 152 6,200  Level Minneapolis Center
Sat 09:03:31 PM 44.2797 -90.7933 340° North 133 153 6,200 48 Level Minneapolis Center
Sat 09:04:33 PM 44.3158 -90.8128 339° North 134 154 6,300 49 Climbing Minneapolis Center
Sat 09:05:34 PM 44.3519 -90.8319 339° North 133 153 6,300  Level Minneapolis Center
Sat 09:06:36 PM 44.3881 -90.8506 340° North 130 150 6,300  Level Minneapolis Center
Sat 09:07:38 PM 44.4214 -90.8683 339° North 133 153 6,300 -49 Level Minneapolis Center
Sat 09:08:39 PM 44.4578 -90.8875 339° North 133 153 6,200 -49 Descending Minneapolis Center
Sat 09:09:41 PM 44.4933 -90.9056 340° North 130 150 6,200  Level Minneapolis Center
Sat 09:10:43 PM 44.5281 -90.9244 339° North 129 148 6,200  Level Minneapolis Center
Sat 09:11:45 PM 44.5611 -90.9411 340° North 131 151 6,200  Level Minneapolis Center
Sat 09:12:46 PM 44.5956 -90.9600 339° North 128 147 6,200  Level Minneapolis Center
Sat 09:13:48 PM 44.6311 -90.9778 340° North 130 150 6,200  Level Minneapolis Center
Sat 09:14:50 PM 44.6669 -90.9975 339° North 131 151 6,200  Level Minneapolis Center
Sat 09:15:51 PM 44.7031 -91.0167 339° North 132 152 6,200  Level Minneapolis Center
Sat 09:16:53 PM 44.7356 -91.0331 340° North 130 150 6,200  Level Minneapolis Center
Sat 09:17:55 PM 44.7703 -91.0517 339° North 127 146 6,200  Level Minneapolis Center
Sat 09:18:56 PM 44.8058 -91.0703 340° North 131 151 6,200  Level Minneapolis Center
Sat 09:19:58 PM 44.8408 -91.0903 338° Northwest 130 150 6,200  Level Minneapolis Center
Sat 09:21:00 PM 44.8742 -91.1067 341° North 132 152 6,200  Level Minneapolis Center
Sat 09:22:01 PM 44.9092 -91.1264 338° Northwest 130 150 6,200  Level Minneapolis Center
Sat 09:23:03 PM 44.9453 -91.1464 339° North 133 153 6,200  Level Minneapolis Center
Sat 09:24:05 PM 44.9828 -91.1647 341° North 135 155 6,200  Level Minneapolis Center
Sat 09:25:06 PM 45.0194 -91.1836 340° North 135 155 6,200 49 Level Minneapolis Center
Sat 09:26:08 PM 45.0522 -91.2028 338° Northwest 133 153 6,300  Climbing Minneapolis Center
Sat 09:27:09 PM 45.0886 -91.2211 340° North 133 153 6,200 -49 Descending Minneapolis Center
Sat 09:28:11 PM 45.1222 -91.2397 339° North 134 154 6,200 48 Level Minneapolis Center
Sat 09:29:13 PM 45.1553 -91.2572 340° North 132 152 6,300 49 Climbing Minneapolis Center
Sat 09:30:14 PM 45.1903 -91.2750 340° North 133 153 6,300 -49 Level Minneapolis Center
Sat 09:31:16 PM 45.2300 -91.2969 339° North 131 151 6,200 -49 Descending Minneapolis Center
Sat 09:32:17 PM 45.2639 -91.3153 339° North 130 150 6,200  Level Minneapolis Center
Sat 09:33:31 PM 45.2975 -91.3342 338° Northwest 131 151 6,200  Level Minneapolis Center
Sat 09:34:32 PM 45.3394 -91.3550 341° North 132 152 6,200  Level Minneapolis Center
Sat 09:35:34 PM 45.3728 -91.3731 339° North 131 151 6,200  Level Minneapolis Center
Sat 09:36:47 PM 45.4067 -91.3919 339° North 131 151 6,200  Level Minneapolis Center
Sat 09:37:49 PM 45.4456 -91.4128 339° North 129 148 6,200  Level Minneapolis Center
Sat 09:38:50 PM 45.4856 -91.4339 340° North 128 147 6,200  Level Minneapolis Center
Sat 09:39:52 PM 45.5181 -91.4514 339° North 127 146 6,200  Level Minneapolis Center
Sat 09:41:05 PM 45.5519 -91.4703 339° North 128 147 6,200  Level Minneapolis Center
Sat 09:42:07 PM 45.5922 -91.4928 339° North 129 148 6,200  Level Minneapolis Center
Sat 09:43:08 PM 45.6283 -91.5119 340° North 130 150 6,200  Level Minneapolis Center
Sat 09:45:11 PM 45.6992 -91.5517 339° North 144 166 6,200  Level Minneapolis Center
Sat 09:46:12 PM 45.7347 -91.5719 338° Northwest 142 163 6,200  Level Minneapolis Center
Sat 09:47:13 PM 45.7697 -91.5908 339° North 128 147 6,200  Level Minneapolis Center
Sat 09:48:15 PM 45.7911 -91.5964 350° North 121 139 6,200 49 Level Minneapolis Center
Sat 09:49:16 PM 45.8289 -91.6128 343° North 115 132 6,300 49 Climbing Minneapolis Center
Sat 09:50:17 PM 45.8656 -91.6408 332° Northwest 122 140 6,300  Level Minneapolis Center
Sat 09:51:19 PM 45.9028 -91.6644 336° Northwest 134 154 6,300  Level Minneapolis Center
Sat 09:52:20 PM 45.9364 -91.6822 340° North 135 155 6,300  Level Minneapolis Center
Sat 09:53:21 PM 45.9689 -91.6981 341° North 132 152 6,300  Level Minneapolis Center
Sat 09:54:22 PM 46.0019 -91.7150 340° North 129 148 6,300  Level Minneapolis Center
Sat 09:55:24 PM 46.0433 -91.7389 338° Northwest 130 150 6,300  Level Minneapolis Center
Sat 09:56:25 PM 46.0767 -91.7586 338° Northwest 131 151 6,300  Level Minneapolis Center
Sat 09:57:26 PM 46.1094 -91.7764 339° North 130 150 6,300  Level Minneapolis Center
Sat 09:58:27 PM 46.1439 -91.7947 340° North 128 147 6,300 -49 Level Minneapolis Center
Sat 09:59:28 PM 46.1636 -91.8067 337° Northwest 128 147 6,200 -48 Descending Minneapolis Center
Sat 10:00:32 PM 46.2106 -91.8322 339° North 119 137 6,200  Level Minneapolis Center
Sat 10:01:33 PM 46.2433 -91.8511 338° Northwest 126 145 6,200  Level Minneapolis Center
Sat 10:02:34 PM 46.2756 -91.8694 339° North 126 145 6,200  Level Minneapolis Center
Sat 10:03:35 PM 46.3081 -91.8875 339° North 125 144 6,200 -98 Level Minneapolis Center
Sat 10:04:37 PM 46.3406 -91.9075 337° Northwest 126 145 6,000 -244 Descending Minneapolis Center
Sat 10:05:38 PM 46.3781 -91.9353 333° Northwest 129 148 5,700 -393 Descending Minneapolis Center
Sat 10:06:39 PM 46.4153 -91.9739 324° Northwest 140 161 5,200 -393 Descending Minneapolis Center
Sat 10:07:40 PM 46.4483 -92.0067 326° Northwest 143 165 4,900 -344 Descending Minneapolis Center
Sat 10:08:41 PM 46.4786 -92.0444 319° Northwest 144 166 4,500 -393 Descending Minneapolis Center
Sat 10:09:42 PM 46.5094 -92.0861 317° Northwest 147 169 4,100 -393 Descending Minneapolis Center
Sat 10:10:43 PM 46.5386 -92.1253 317° Northwest 146 168 3,700 -393 Descending Minneapolis Center
Sat 10:11:44 PM 46.5700 -92.1642 320° Northwest 147 169 3,300 -246 Descending Minneapolis Center
Sat 10:12:45 PM 46.6056 -92.1867 337° Northwest 143 165 3,200 -49 Descending Minneapolis Center
Sat 10:13:46 PM 46.6453 -92.1853 North 140 161 3,200 49 Level Minneapolis Center
Sat 10:14:47 PM 46.6825 -92.1931 352° North 138 159 3,300 49 Climbing Minneapolis Center
Sat 10:15:48 PM 46.7164 -92.2025 349° North 133 153 3,300 -148 Level Minneapolis Center
Sat 10:16:49 PM 46.7539 -92.2147 347° North 133 153 3,000 -393 Descending Minneapolis Center
Sat 10:17:50 PM 46.7981 -92.2169 358° North 134 154 2,500 -492 Descending Minneapolis Center
Sat 10:18:51 PM 46.8242 -92.1961 29° Northeast 119 137 2,000 -393 Descending Minneapolis Center
Sat 10:19:52 PM 46.8442 -92.1758 35° Northeast 111 128 1,700 -295 Descending Minneapolis Center
Sat 10:21:00 PM 46.8421 -92.1936 260° West  Level Estimated
Sat 10:28:00 PM 46.8421 -92.1936 13° North  Level Estimated
Sat 10:29:00 PM 46.8421 -92.1936 13° North  Level Estimated

Login

Don't have an account? Register now (free) for customized features, flight alerts, and more!